Terminal Aerodrome Forecast
Issued by NWS

Home | Current Version | Previous Version | Text Only | Print | Product List | Glossary Off
Versions: 1 2 3 4 5 6 7 8 9 10 11 12 13 14 15 16

000
FTUS42 KMHX 221739
TAFOAJ
TAF
KOAJ 221739Z 2218/2318 22005KT P6SM VCSH BKN045
     FM222300 22005KT P6SM SCT045 BKN140
     FM230600 22005KT P6SM OVC015
     FM231400 22008KT P6SM BKN040
      AMD LTD TO CLD VIS AND WIND=

USA.gov is the U.S. government's official web portal to all federal, state and local government web resources and services.